Time,TemperatureF,DewpointF,PressureIn,WindDirection,WindDirectionDegrees,WindSpeedMPH,WindSpeedGustMPH,Humidity,HourlyPrecipIn,Conditions,Clouds,dailyrainin,SoftwareType,DateUTC
2013-03-10 00:01:00,56.7,54.7,29.64,SSE,158,1.8,4.7,93,0.18,,,0.00,WUHU216HW,2013-03-10 06:01:00,
2013-03-10 00:06:00,56.7,54.7,29.63,SSE,152,1.7,4.7,93,0.16,,,0.01,WUHU216HW,2013-03-10 06:06:00,
2013-03-10 00:11:00,56.7,54.7,29.64,SE,135,2.5,2.5,93,0.15,,,0.02,WUHU216HW,2013-03-10 06:11:00,
2013-03-10 00:16:00,56.7,54.7,29.64,SSE,158,2.9,4.0,93,0.14,,,0.03,WUHU216HW,2013-03-10 06:16:00,
2013-03-10 00:21:00,56.7,54.7,29.64,SSE,159,1.9,6.3,93,0.13,,,0.04,WUHU216HW,2013-03-10 06:21:00,
2013-03-10 00:26:00,56.7,54.7,29.63,East,90,1.3,6.3,93,0.11,,,0.05,WUHU216HW,2013-03-10 06:26:00,
2013-03-10 00:31:00,56.7,54.7,29.64,SSE,158,1.1,2.2,93,0.12,,,0.07,WUHU216HW,2013-03-10 06:31:00,
2013-03-10 00:36:00,56.7,54.7,29.64,SE,135,1.4,1.6,93,0.13,,,0.09,WUHU216HW,2013-03-10 06:36:00,
2013-03-10 00:41:00,56.7,54.7,29.64,SE,133,1.5,1.6,93,0.15,,,0.11,WUHU216HW,2013-03-10 06:41:00,
2013-03-10 00:46:00,56.7,54.7,29.62,East,90,2.0,2.0,93,0.15,,,0.13,WUHU216HW,2013-03-10 06:46:00,
2013-03-10 00:51:00,56.7,54.7,29.61,ESE,113,3.6,3.6,93,0.16,,,0.14,WUHU216HW,2013-03-10 06:51:00,
2013-03-10 00:56:00,56.7,54.7,29.60,SE,128,2.7,3.6,93,0.14,,,0.14,WUHU216HW,2013-03-10 06:56:00,
2013-03-10 01:01:00,56.7,54.7,29.61,SSE,158,3.0,4.7,93,0.13,,,0.14,WUHU216HW,2013-03-10 07:01:00,
2013-03-10 01:06:00,56.7,54.7,29.60,ESE,113,1.1,5.4,93,0.14,,,0.15,WUHU216HW,2013-03-10 07:06:00,
2013-03-10 01:11:00,56.7,54.7,29.60,SSE,158,2.5,5.4,93,0.13,,,0.15,WUHU216HW,2013-03-10 07:11:00,
2013-03-10 01:16:00,56.5,54.2,29.61,SE,135,2.5,3.6,92,0.12,,,0.15,WUHU216HW,2013-03-10 07:16:00,
2013-03-10 01:21:00,56.7,54.7,29.62,SSE,153,3.8,6.0,93,0.11,,,0.15,WUHU216HW,2013-03-10 07:21:00,
2013-03-10 01:26:00,56.7,54.7,29.63,South,189,3.0,6.0,93,0.10,,,0.15,WUHU216HW,2013-03-10 07:26:00,
2013-03-10 01:31:00,56.7,54.7,29.62,SE,135,2.9,4.7,93,0.08,,,0.15,WUHU216HW,2013-03-10 07:31:00,
2013-03-10 01:36:00,56.7,54.7,29.62,SSE,154,2.5,4.3,93,0.05,,,0.15,WUHU216HW,2013-03-10 07:36:00,
2013-03-10 01:41:00,56.7,54.7,29.62,SE,145,2.0,4.3,93,0.03,,,0.15,WUHU216HW,2013-03-10 07:41:00,
2013-03-10 01:46:00,56.7,54.7,29.62,SSE,149,3.3,4.3,93,0.02,,,0.15,WUHU216HW,2013-03-10 07:46:00,
2013-03-10 01:51:00,56.7,54.7,29.62,SSE,158,4.5,4.5,93,0.01,,,0.15,WUHU216HW,2013-03-10 07:51:00,
2013-03-10 01:56:00,56.7,54.7,29.61,SSE,158,1.3,4.5,93,0.01,,,0.15,WUHU216HW,2013-03-10 07:56:00,
2013-03-10 03:01:00,56.7,54.7,29.61,ESE,113,3.1,3.4,93,0.01,,,0.33,WUHU216HW,2013-03-10 08:01:00,
2013-03-10 03:06:00,56.7,54.7,29.60,SSE,158,2.3,3.8,93,0.00,,,0.33,WUHU216HW,2013-03-10 08:06:00,
2013-03-10 03:11:00,56.7,54.7,29.60,SSE,149,2.4,4.0,93,0.00,,,0.33,WUHU216HW,2013-03-10 08:11:00,
2013-03-10 03:16:00,56.7,54.4,29.60,SSE,158,2.2,4.7,92,0.00,,,0.33,WUHU216HW,2013-03-10 08:16:00,
2013-03-10 03:21:00,56.5,54.2,29.60,SE,130,1.5,4.9,92,0.00,,,0.33,WUHU216HW,2013-03-10 08:21:00,
2013-03-10 03:26:00,56.5,54.2,29.59,SE,135,1.1,4.9,92,0.00,,,0.33,WUHU216HW,2013-03-10 08:26:00,
2013-03-10 03:31:00,56.5,54.2,29.59,SE,139,3.3,3.8,92,0.00,,,0.33,WUHU216HW,2013-03-10 08:31:00,
2013-03-10 03:36:00,56.5,54.2,29.59,SE,131,1.5,4.3,92,0.00,,,0.33,WUHU216HW,2013-03-10 08:36:00,
2013-03-10 03:41:00,56.3,54.0,29.58,SSE,150,2.6,4.3,92,0.00,,,0.33,WUHU216HW,2013-03-10 08:41:00,
2013-03-10 03:46:00,56.3,54.0,29.58,SE,144,1.5,3.4,92,0.00,,,0.33,WUHU216HW,2013-03-10 08:46:00,
2013-03-10 03:51:00,56.2,53.8,29.58,SSE,158,2.2,3.1,92,0.00,,,0.33,WUHU216HW,2013-03-10 08:51:00,
2013-03-10 03:56:00,56.2,53.8,29.58,SE,135,1.6,3.4,92,0.00,,,0.33,WUHU216HW,2013-03-10 08:56:00,
2013-03-10 04:01:00,56.2,53.8,29.57,South,180,2.7,3.4,92,0.00,,,0.33,WUHU216HW,2013-03-10 09:01:00,
2013-03-10 04:06:00,56.0,53.6,29.56,SSE,158,4.0,4.7,92,0.01,,,0.34,WUHU216HW,2013-03-10 09:06:00,
2013-03-10 04:11:00,56.0,53.6,29.56,SSE,158,1.5,6.5,92,0.01,,,0.34,WUHU216HW,2013-03-10 09:11:00,
2013-03-10 04:16:00,55.8,53.5,29.56,SSE,158,3.8,6.5,92,0.02,,,0.35,WUHU216HW,2013-03-10 09:16:00,
2013-03-10 04:21:00,55.8,53.5,29.57,ESE,113,4.7,4.9,92,0.02,,,0.35,WUHU216HW,2013-03-10 09:21:00,
2013-03-10 04:26:00,55.6,53.3,29.57,South,172,2.7,4.9,92,0.02,,,0.35,WUHU216HW,2013-03-10 09:26:00,
2013-03-10 04:31:00,55.6,53.3,29.57,SE,135,3.0,4.5,92,0.02,,,0.35,WUHU216HW,2013-03-10 09:31:00,
2013-03-10 04:36:00,55.4,53.1,29.58,ESE,115,4.6,5.6,92,0.02,,,0.35,WUHU216HW,2013-03-10 09:36:00,
2013-03-10 04:41:00,55.4,52.8,29.58,ESE,113,4.2,5.6,91,0.02,,,0.35,WUHU216HW,2013-03-10 09:41:00,
2013-03-10 04:46:00,55.4,52.8,29.58,SSE,158,2.0,6.5,91,0.02,,,0.35,WUHU216HW,2013-03-10 09:46:00,
2013-03-10 04:51:00,55.3,52.7,29.59,SSE,158,2.5,6.5,91,0.02,,,0.35,WUHU216HW,2013-03-10 09:51:00,
2013-03-10 04:56:00,55.3,52.7,29.60,East,90,4.9,4.9,91,0.02,,,0.35,WUHU216HW,2013-03-10 09:56:00,
2013-03-10 05:01:00,55.1,52.7,29.61,ESE,113,3.4,4.9,92,0.02,,,0.35,WUHU216HW,2013-03-10 10:01:00,
2013-03-10 05:06:00,55.1,52.7,29.62,SW,216,2.2,3.6,92,0.01,,,0.35,WUHU216HW,2013-03-10 10:06:00,
2013-03-10 05:11:00,55.1,52.5,29.63,SSW,212,4.2,4.9,91,0.01,,,0.35,WUHU216HW,2013-03-10 10:11:00,
2013-03-10 05:16:00,55.1,52.5,29.62,SE,135,4.7,4.9,91,0.00,,,0.35,WUHU216HW,2013-03-10 10:16:00,
2013-03-10 05:21:00,54.9,52.3,29.60,ESE,106,1.8,4.7,91,0.00,,,0.35,WUHU216HW,2013-03-10 10:21:00,
2013-03-10 05:26:00,54.7,52.1,29.62,SE,135,2.5,3.6,91,0.00,,,0.35,WUHU216HW,2013-03-10 10:26:00,
2013-03-10 05:31:00,54.5,51.7,29.62,SE,135,3.0,3.6,90,0.01,,,0.36,WUHU216HW,2013-03-10 10:31:00,
2013-03-10 05:36:00,54.5,51.7,29.62,SW,225,4.9,4.9,90,0.01,,,0.36,WUHU216HW,2013-03-10 10:36:00,
2013-03-10 05:41:00,54.4,51.5,29.61,SSE,158,3.4,4.9,90,0.01,,,0.36,WUHU216HW,2013-03-10 10:41:00,
2013-03-10 05:46:00,54.2,51.3,29.61,South,180,2.7,4.7,90,0.01,,,0.36,WUHU216HW,2013-03-10 10:46:00,
2013-03-10 05:51:00,54.0,51.1,29.61,South,186,1.8,3.4,90,0.01,,,0.36,WUHU216HW,2013-03-10 10:51:00,
2013-03-10 05:56:00,53.8,50.9,29.60,East,90,0.4,2.7,90,0.02,,,0.37,WUHU216HW,2013-03-10 10:56:00,
2013-03-10 06:01:00,53.6,50.8,29.60,ESE,113,1.1,1.1,90,0.02,,,0.37,WUHU216HW,2013-03-10 11:01:00,
2013-03-10 06:06:00,53.5,50.6,29.60,South,180,0.7,1.1,90,0.02,,,0.37,WUHU216HW,2013-03-10 11:06:00,
2013-03-10 06:11:00,53.3,50.4,29.61,SSE,158,1.1,1.1,90,0.02,,,0.37,WUHU216HW,2013-03-10 11:11:00,
2013-03-10 06:16:00,53.1,50.5,29.62,ESE,118,0.8,1.1,91,0.02,,,0.37,WUHU216HW,2013-03-10 11:16:00,
2013-03-10 06:21:00,53.1,50.2,29.62,SSW,203,0.2,1.1,90,0.02,,,0.37,WUHU216HW,2013-03-10 11:21:00,
2013-03-10 06:26:00,52.9,50.0,29.62,East,90,0.4,1.1,90,0.01,,,0.37,WUHU216HW,2013-03-10 11:26:00,
2013-03-10 06:31:00,52.9,50.3,29.62,SSW,203,1.4,2.5,91,0.02,,,0.38,WUHU216HW,2013-03-10 11:31:00,
2013-03-10 06:36:00,52.9,50.0,29.63,SSW,203,2.0,2.7,90,0.03,,,0.39,WUHU216HW,2013-03-10 11:36:00,
2013-03-10 06:41:00,52.7,49.6,29.64,WSW,239,5.7,6.9,89,0.04,,,0.40,WUHU216HW,2013-03-10 11:41:00,
2013-03-10 06:46:00,52.6,49.4,29.65,SSW,203,1.8,6.9,89,0.05,,,0.41,WUHU216HW,2013-03-10 11:46:00,
2013-03-10 06:51:00,52.2,49.1,29.66,SW,232,2.8,4.7,89,0.07,,,0.43,WUHU216HW,2013-03-10 11:51:00,
2013-03-10 06:56:00,52.0,49.1,29.66,SSW,203,3.5,4.7,90,0.07,,,0.44,WUHU216HW,2013-03-10 11:56:00,
2013-03-10 07:01:00,51.7,48.5,29.67,WSW,248,3.6,4.5,89,0.08,,,0.45,WUHU216HW,2013-03-10 12:01:00,
2013-03-10 07:06:00,51.3,48.4,29.67,SW,235,4.3,6.5,90,0.10,,,0.47,WUHU216HW,2013-03-10 12:06:00,
2013-03-10 07:11:00,51.1,48.0,29.67,SSW,210,2.6,6.5,89,0.11,,,0.48,WUHU216HW,2013-03-10 12:11:00,
2013-03-10 07:16:00,50.8,47.9,29.67,WNW,289,1.9,4.3,90,0.13,,,0.50,WUHU216HW,2013-03-10 12:16:00,
2013-03-10 07:21:00,50.6,47.7,29.67,SW,218,1.3,4.3,90,0.14,,,0.51,WUHU216HW,2013-03-10 12:21:00,
2013-03-10 07:26:00,50.4,47.5,29.65,NNW,327,1.1,2.2,90,0.16,,,0.53,WUHU216HW,2013-03-10 12:26:00,
2013-03-10 07:31:00,50.2,47.3,29.64,NW,315,1.6,2.2,90,0.16,,,0.54,WUHU216HW,2013-03-10 12:31:00,
2013-03-10 07:36:00,50.0,47.2,29.64,SW,225,0.0,1.6,90,0.16,,,0.55,WUHU216HW,2013-03-10 12:36:00,
2013-03-10 07:41:00,50.0,47.2,29.63,SW,225,0.1,0.7,90,0.16,,,0.56,WUHU216HW,2013-03-10 12:41:00,
2013-03-10 07:46:00,49.9,47.0,29.62,SW,225,0.0,0.2,90,0.15,,,0.57,WUHU216HW,2013-03-10 12:46:00,
2013-03-10 07:51:00,49.9,47.0,29.63,SSW,203,0.4,0.4,90,0.15,,,0.58,WUHU216HW,2013-03-10 12:51:00,
2013-03-10 07:56:00,49.7,46.8,29.64,SSW,203,0.1,0.4,90,0.15,,,0.59,WUHU216HW,2013-03-10 12:56:00,
2013-03-10 08:01:00,49.7,47.2,29.64,SE,135,0.1,0.4,91,0.13,,,0.59,WUHU216HW,2013-03-10 13:01:00,
2013-03-10 08:06:00,49.5,47.0,29.65,SSW,203,0.4,0.4,91,0.13,,,0.60,WUHU216HW,2013-03-10 13:06:00,
2013-03-10 08:11:00,49.5,46.7,29.62,SSW,203,0.0,0.4,90,0.12,,,0.61,WUHU216HW,2013-03-10 13:11:00,
2013-03-10 08:16:00,49.5,47.0,29.62,SSW,203,0.0,0.0,91,0.13,,,0.63,WUHU216HW,2013-03-10 13:16:00,
2013-03-10 08:21:00,49.5,47.0,29.62,ESE,113,0.4,0.4,91,0.12,,,0.63,WUHU216HW,2013-03-10 13:21:00,
2013-03-10 08:26:00,49.3,47.1,29.60,ESE,113,0.4,0.9,92,0.11,,,0.64,WUHU216HW,2013-03-10 13:26:00,
2013-03-10 08:31:00,49.3,47.1,29.60,ESE,113,0.7,1.1,92,0.11,,,0.65,WUHU216HW,2013-03-10 13:31:00,
2013-03-10 08:36:00,49.3,47.1,29.60,ESE,113,0.0,1.1,92,0.11,,,0.66,WUHU216HW,2013-03-10 13:36:00,
2013-03-10 08:41:00,49.3,46.8,29.63,SSW,203,1.8,1.8,91,0.10,,,0.66,WUHU216HW,2013-03-10 13:41:00,
2013-03-10 08:46:00,49.3,46.8,29.65,SW,225,0.7,1.8,91,0.08,,,0.66,WUHU216HW,2013-03-10 13:46:00,
2013-03-10 08:51:00,49.3,46.8,29.65,SSW,203,0.2,1.8,91,0.08,,,0.67,WUHU216HW,2013-03-10 13:51:00,
2013-03-10 08:56:00,49.3,46.8,29.66,South,188,0.3,1.1,91,0.09,,,0.68,WUHU216HW,2013-03-10 13:56:00,
2013-03-10 09:01:00,49.3,47.1,29.66,SSE,158,0.3,0.4,92,0.11,,,0.70,WUHU216HW,2013-03-10 14:01:00,
2013-03-10 09:06:00,49.3,47.1,29.67,SSE,158,0.7,0.9,92,0.12,,,0.72,WUHU216HW,2013-03-10 14:06:00,
2013-03-10 09:11:00,49.1,46.9,29.65,SE,135,0.7,1.6,92,0.13,,,0.74,WUHU216HW,2013-03-10 14:11:00,
2013-03-10 09:16:00,49.1,46.9,29.65,ESE,113,0.4,1.6,92,0.12,,,0.75,WUHU216HW,2013-03-10 14:16:00,
2013-03-10 09:21:00,49.0,46.7,29.64,ESE,113,0.7,0.7,92,0.14,,,0.77,WUHU216HW,2013-03-10 14:21:00,
2013-03-10 09:26:00,48.8,46.6,29.64,ESE,113,0.7,0.7,92,0.14,,,0.79,WUHU216HW,2013-03-10 14:26:00,
2013-03-10 09:31:00,48.8,46.9,29.63,SE,135,1.6,1.6,93,0.14,,,0.79,WUHU216HW,2013-03-10 14:31:00,
2013-03-10 09:36:00,48.8,46.9,29.63,ESE,113,1.8,1.8,93,0.15,,,0.81,WUHU216HW,2013-03-10 14:36:00,
2013-03-10 09:41:00,48.6,46.7,29.62,ESE,113,1.8,1.8,93,0.17,,,0.83,WUHU216HW,2013-03-10 14:41:00,
2013-03-10 09:46:00,48.6,46.7,29.60,ESE,113,1.3,2.9,93,0.19,,,0.86,WUHU216HW,2013-03-10 14:46:00,
2013-03-10 09:51:00,48.4,46.5,29.60,East,90,0.9,2.9,93,0.20,,,0.87,WUHU216HW,2013-03-10 14:51:00,
2013-03-10 09:56:00,48.4,46.5,29.60,East,90,2.2,2.2,93,0.19,,,0.87,WUHU216HW,2013-03-10 14:56:00,
2013-03-10 10:01:00,48.2,46.4,29.62,ESE,113,0.7,2.2,93,0.18,,,0.88,WUHU216HW,2013-03-10 15:01:00,
2013-03-10 10:06:00,48.2,46.4,29.62,ESE,113,1.6,2.0,93,0.16,,,0.88,WUHU216HW,2013-03-10 15:06:00,
2013-03-10 10:11:00,48.2,46.4,29.62,East,90,1.3,1.6,93,0.16,,,0.90,WUHU216HW,2013-03-10 15:11:00,
2013-03-10 10:16:00,48.2,46.6,29.62,SE,135,2.5,2.5,94,0.16,,,0.91,WUHU216HW,2013-03-10 15:16:00,
2013-03-10 10:21:00,48.2,46.6,29.61,ESE,113,3.1,3.1,94,0.15,,,0.92,WUHU216HW,2013-03-10 15:21:00,
2013-03-10 10:26:00,48.2,46.6,29.58,ESE,122,4.9,6.3,94,0.15,,,0.94,WUHU216HW,2013-03-10 15:26:00,
2013-03-10 10:31:00,48.2,46.6,29.59,ESE,107,4.7,6.9,94,0.14,,,0.95,WUHU216HW,2013-03-10 15:31:00,
2013-03-10 10:36:00,48.2,46.6,29.60,ESE,113,1.8,6.9,94,0.13,,,0.95,WUHU216HW,2013-03-10 15:36:00,
2013-03-10 10:41:00,48.2,46.6,29.62,SSE,158,3.4,3.4,94,0.11,,,0.95,WUHU216HW,2013-03-10 15:41:00,
2013-03-10 10:46:00,48.2,46.6,29.63,SE,135,1.1,3.4,94,0.09,,,0.95,WUHU216HW,2013-03-10 15:46:00,
2013-03-10 10:51:00,48.2,46.6,29.62,ESE,113,2.3,3.4,94,0.09,,,0.96,WUHU216HW,2013-03-10 15:51:00,
2013-03-10 10:56:00,48.1,46.4,29.62,SE,135,0.7,3.4,94,0.08,,,0.96,WUHU216HW,2013-03-10 15:56:00,
2013-03-10 11:01:00,48.1,46.4,29.62,ESE,113,0.4,1.6,94,0.09,,,0.97,WUHU216HW,2013-03-10 16:01:00,
2013-03-10 11:06:00,48.1,46.4,29.64,SSE,148,1.1,2.5,94,0.09,,,0.98,WUHU216HW,2013-03-10 16:06:00,
2013-03-10 11:11:00,48.1,46.4,29.63,ESE,113,0.3,2.5,94,0.07,,,0.98,WUHU216HW,2013-03-10 16:11:00,
2013-03-10 11:16:00,48.1,46.4,29.60,SW,225,0.1,0.7,94,0.07,,,0.99,WUHU216HW,2013-03-10 16:16:00,
2013-03-10 11:21:00,48.1,46.4,29.61,ESE,113,1.1,1.1,94,0.07,,,1.00,WUHU216HW,2013-03-10 16:21:00,
2013-03-10 11:26:00,47.9,46.3,29.59,East,100,1.5,1.6,94,0.05,,,1.00,WUHU216HW,2013-03-10 16:26:00,
2013-03-10 11:31:00,48.1,46.4,29.56,ESE,122,1.5,1.8,94,0.06,,,1.01,WUHU216HW,2013-03-10 16:31:00,
2013-03-10 11:36:00,48.1,46.4,29.58,ESE,120,1.3,2.0,94,0.06,,,1.01,WUHU216HW,2013-03-10 16:36:00,
2013-03-10 11:41:00,48.4,46.8,29.60,ESE,113,0.4,2.0,94,0.06,,,1.01,WUHU216HW,2013-03-10 16:41:00,
2013-03-10 11:46:00,48.2,46.6,29.59,ESE,113,0.4,1.1,94,0.06,,,1.01,WUHU216HW,2013-03-10 16:46:00,
2013-03-10 11:51:00,48.2,46.6,29.60,SE,135,0.4,1.3,94,0.05,,,1.01,WUHU216HW,2013-03-10 16:51:00,
2013-03-10 11:56:00,48.2,46.6,29.60,SSE,158,0.7,1.3,94,0.04,,,1.01,WUHU216HW,2013-03-10 16:56:00,
2013-03-10 12:01:00,48.4,46.8,29.61,SSE,158,1.0,2.0,94,0.04,,,1.01,WUHU216HW,2013-03-10 17:01:00,
2013-03-10 12:06:00,48.4,46.8,29.60,SE,135,0.3,2.0,94,0.03,,,1.01,WUHU216HW,2013-03-10 17:06:00,
2013-03-10 12:11:00,48.6,47.0,29.60,SSW,203,1.3,1.6,94,0.03,,,1.01,WUHU216HW,2013-03-10 17:11:00,
2013-03-10 12:16:00,48.6,47.0,29.62,SE,135,0.7,2.5,94,0.02,,,1.01,WUHU216HW,2013-03-10 17:16:00,
2013-03-10 12:21:00,48.8,47.2,29.62,SE,140,0.4,2.5,94,0.01,,,1.01,WUHU216HW,2013-03-10 17:21:00,
2013-03-10 12:26:00,48.8,47.2,29.59,SE,132,0.7,1.3,94,0.01,,,1.01,WUHU216HW,2013-03-10 17:26:00,
2013-03-10 12:31:00,49.0,47.4,29.58,SSW,203,1.6,1.6,94,0.00,,,1.01,WUHU216HW,2013-03-10 17:31:00,
2013-03-10 12:36:00,49.1,47.4,29.60,SE,135,1.6,1.8,94,0.00,,,1.01,WUHU216HW,2013-03-10 17:36:00,
2013-03-10 12:41:00,49.3,47.3,29.58,SE,135,0.2,1.8,93,0.00,,,1.01,WUHU216HW,2013-03-10 17:41:00,
2013-03-10 12:46:00,50.0,48.3,29.60,SSE,148,2.2,2.9,94,0.00,,,1.01,WUHU216HW,2013-03-10 17:46:00,
2013-03-10 12:51:00,50.0,48.1,29.59,ESE,113,0.4,2.9,93,0.00,,,1.01,WUHU216HW,2013-03-10 17:51:00,
2013-03-10 12:56:00,50.6,48.2,29.57,SSE,149,0.6,2.5,92,0.00,,,1.01,WUHU216HW,2013-03-10 17:56:00,
2013-03-10 13:01:00,51.7,49.7,29.57,ESE,113,1.8,1.8,93,0.00,,,1.01,WUHU216HW,2013-03-10 18:01:00,
2013-03-10 13:06:00,51.5,48.6,29.58,SSE,158,1.1,2.9,90,0.00,,,1.01,WUHU216HW,2013-03-10 18:06:00,
2013-03-10 13:11:00,52.4,50.0,29.59,SSW,203,2.0,3.6,92,0.00,,,1.01,WUHU216HW,2013-03-10 18:11:00,
2013-03-10 13:16:00,52.9,49.4,29.60,East,86,3.0,3.6,88,0.00,,,1.01,WUHU216HW,2013-03-10 18:16:00,
2013-03-10 13:21:00,52.9,49.4,29.59,SSE,158,2.5,4.9,88,0.00,,,1.01,WUHU216HW,2013-03-10 18:21:00,
2013-03-10 13:26:00,53.5,50.0,29.58,SE,135,1.6,4.9,88,0.00,,,1.01,WUHU216HW,2013-03-10 18:26:00,
2013-03-10 13:31:00,54.2,50.0,29.57,South,180,2.5,4.9,86,0.00,,,1.01,WUHU216HW,2013-03-10 18:31:00,
2013-03-10 13:36:00,54.2,49.4,29.58,ESE,113,3.1,4.0,84,0.00,,,1.01,WUHU216HW,2013-03-10 18:36:00,
2013-03-10 13:41:00,54.4,50.0,29.58,South,180,2.9,3.1,85,0.00,,,1.01,WUHU216HW,2013-03-10 18:41:00,
2013-03-10 13:46:00,54.4,49.6,29.57,South,180,2.7,4.3,84,0.00,,,1.01,WUHU216HW,2013-03-10 18:46:00,
2013-03-10 13:51:00,54.4,49.6,29.57,South,179,2.8,4.3,84,0.00,,,1.01,WUHU216HW,2013-03-10 18:51:00,
2013-03-10 13:56:00,54.7,50.0,29.57,SSW,203,1.8,4.0,84,0.00,,,1.01,WUHU216HW,2013-03-10 18:56:00,
2013-03-10 14:01:00,55.1,50.0,29.57,SSW,203,3.1,4.0,83,0.00,,,1.01,WUHU216HW,2013-03-10 19:01:00,
2013-03-10 14:06:00,55.4,49.7,29.57,SW,225,2.2,4.7,81,0.00,,,1.01,WUHU216HW,2013-03-10 19:06:00,
2013-03-10 14:11:00,55.6,49.1,29.56,SE,135,3.4,5.6,79,0.00,,,1.01,WUHU216HW,2013-03-10 19:11:00,
2013-03-10 14:16:00,55.8,49.3,29.56,ESE,113,4.3,6.3,79,0.00,,,1.01,WUHU216HW,2013-03-10 19:16:00,
2013-03-10 14:21:00,56.2,49.3,29.56,SE,142,2.3,6.3,78,0.00,,,1.01,WUHU216HW,2013-03-10 19:21:00,
2013-03-10 14:26:00,56.9,50.4,29.56,SSE,147,2.7,5.4,79,0.00,,,1.01,WUHU216HW,2013-03-10 19:26:00,
2013-03-10 14:31:00,57.2,50.0,29.56,East,90,3.4,5.8,77,0.00,,,1.01,WUHU216HW,2013-03-10 19:31:00,
2013-03-10 14:36:00,57.6,49.3,29.55,SSE,158,2.5,5.8,74,0.00,,,1.01,WUHU216HW,2013-03-10 19:36:00,
2013-03-10 14:41:00,57.2,49.0,29.55,SSE,164,3.1,6.3,74,0.00,,,1.01,WUHU216HW,2013-03-10 19:41:00,
2013-03-10 14:46:00,57.1,48.4,29.55,SE,135,1.8,6.3,73,0.00,,,1.01,WUHU216HW,2013-03-10 19:46:00,
2013-03-10 14:51:00,56.5,48.6,29.55,SSE,158,2.2,3.8,75,0.00,,,1.01,WUHU216HW,2013-03-10 19:51:00,
2013-03-10 14:56:00,56.0,48.8,29.55,South,180,6.5,8.5,77,0.00,,,1.01,WUHU216HW,2013-03-10 19:56:00,
2013-03-10 15:01:00,55.3,48.2,29.56,SW,235,8.6,9.8,77,0.00,,,1.01,WUHU216HW,2013-03-10 20:01:00,
2013-03-10 15:06:00,52.4,47.7,29.56,SW,225,6.9,11.4,84,0.00,,,1.01,WUHU216HW,2013-03-10 20:06:00,
2013-03-10 15:12:00,50.9,47.2,29.57,SW,225,5.6,11.4,87,0.00,,,1.01,WUHU216HW,2013-03-10 20:12:00,
2013-03-10 15:17:00,49.7,45.9,29.58,WSW,248,5.6,8.1,87,0.01,,,1.02,WUHU216HW,2013-03-10 20:17:00,
2013-03-10 15:22:00,49.1,45.7,29.58,SW,217,5.1,8.1,88,0.01,,,1.02,WUHU216HW,2013-03-10 20:22:00,
2013-03-10 15:27:00,48.6,45.2,29.59,SSW,203,6.3,8.7,88,0.01,,,1.02,WUHU216HW,2013-03-10 20:27:00,
2013-03-10 15:32:00,47.9,44.6,29.59,WSW,238,4.2,8.7,88,0.02,,,1.03,WUHU216HW,2013-03-10 20:32:00,
2013-03-10 15:37:00,47.9,44.8,29.60,SSW,204,3.8,7.6,89,0.02,,,1.03,WUHU216HW,2013-03-10 20:37:00,
2013-03-10 15:42:00,47.5,44.2,29.60,WSW,247,5.5,7.6,88,0.02,,,1.03,WUHU216HW,2013-03-10 20:42:00,
2013-03-10 15:47:00,47.3,44.0,29.60,NNW,338,6.3,7.2,88,0.02,,,1.03,WUHU216HW,2013-03-10 20:47:00,
2013-03-10 15:52:00,47.3,44.4,29.60,WSW,248,2.5,7.2,89,0.02,,,1.03,WUHU216HW,2013-03-10 20:52:00,
2013-03-10 15:57:00,47.5,44.5,29.60,South,174,5.4,6.9,89,0.02,,,1.03,WUHU216HW,2013-03-10 20:57:00,
2013-03-10 16:02:00,47.3,44.0,29.61,SW,225,5.4,7.8,88,0.02,,,1.03,WUHU216HW,2013-03-10 21:02:00,
2013-03-10 16:07:00,47.2,43.8,29.62,West,280,4.0,7.8,88,0.02,,,1.03,WUHU216HW,2013-03-10 21:07:00,
2013-03-10 16:12:00,47.0,44.0,29.62,NW,315,9.8,9.8,89,0.01,,,1.03,WUHU216HW,2013-03-10 21:12:00,
2013-03-10 16:17:00,46.3,42.9,29.62,WSW,248,4.1,10.5,88,0.01,,,1.03,WUHU216HW,2013-03-10 21:17:00,
2013-03-10 16:22:00,45.7,42.4,29.63,SW,225,9.1,10.7,88,0.01,,,1.03,WUHU216HW,2013-03-10 21:22:00,
2013-03-10 16:27:00,45.4,42.4,29.63,SW,225,5.1,10.7,89,0.00,,,1.03,WUHU216HW,2013-03-10 21:27:00,
2013-03-10 16:32:00,45.4,42.0,29.63,WSW,244,3.3,6.9,88,0.00,,,1.03,WUHU216HW,2013-03-10 21:32:00,
2013-03-10 16:37:00,45.4,42.0,29.63,SW,225,3.8,4.7,88,0.00,,,1.03,WUHU216HW,2013-03-10 21:37:00,
2013-03-10 16:42:00,45.2,41.9,29.63,WSW,248,7.4,7.4,88,0.00,,,1.03,WUHU216HW,2013-03-10 21:42:00,
2013-03-10 16:47:00,45.2,41.9,29.64,SSE,168,4.0,7.8,88,0.00,,,1.03,WUHU216HW,2013-03-10 21:47:00,
2013-03-10 16:52:00,44.8,41.5,29.64,SW,225,4.5,7.8,88,0.00,,,1.03,WUHU216HW,2013-03-10 21:52:00,
2013-03-10 16:57:00,44.5,41.1,29.64,NNW,343,4.1,7.4,88,0.00,,,1.03,WUHU216HW,2013-03-10 21:57:00,
2013-03-10 17:02:00,44.3,41.0,29.65,WSW,248,7.9,8.1,88,0.00,,,1.03,WUHU216HW,2013-03-10 22:02:00,
2013-03-10 17:07:00,43.9,40.6,29.65,West,270,4.5,9.2,88,0.00,,,1.03,WUHU216HW,2013-03-10 22:07:00,
2013-03-10 17:12:00,43.9,40.6,29.65,WSW,248,8.9,9.2,88,0.00,,,1.03,WUHU216HW,2013-03-10 22:12:00,
2013-03-10 17:17:00,43.7,40.4,29.65,West,270,6.3,8.9,88,0.00,,,1.03,WUHU216HW,2013-03-10 22:17:00,
2013-03-10 17:22:00,43.6,40.2,29.65,WNW,293,6.3,6.9,88,0.01,,,1.04,WUHU216HW,2013-03-10 22:22:00,
2013-03-10 17:27:00,43.2,40.2,29.65,SW,225,6.5,7.2,89,0.01,,,1.04,WUHU216HW,2013-03-10 22:27:00,
2013-03-10 17:32:00,42.7,39.7,29.66,WNW,288,4.5,7.2,89,0.01,,,1.04,WUHU216HW,2013-03-10 22:32:00,
2013-03-10 17:37:00,42.5,39.5,29.66,WSW,248,2.0,7.2,89,0.01,,,1.04,WUHU216HW,2013-03-10 22:37:00,
2013-03-10 17:42:00,42.1,39.2,29.66,SW,234,5.1,5.4,89,0.01,,,1.04,WUHU216HW,2013-03-10 22:42:00,
2013-03-10 17:47:00,41.9,39.2,29.67,West,270,2.0,7.2,90,0.01,,,1.04,WUHU216HW,2013-03-10 22:47:00,
2013-03-10 17:52:00,41.4,38.7,29.67,South,180,4.7,7.4,90,0.01,,,1.04,WUHU216HW,2013-03-10 22:52:00,
2013-03-10 17:58:00,41.4,38.7,29.67,WNW,293,3.7,7.4,90,0.01,,,1.04,WUHU216HW,2013-03-10 22:58:00,
2013-03-10 18:03:00,41.0,38.3,29.67,West,270,6.0,7.4,90,0.01,,,1.04,WUHU216HW,2013-03-10 23:03:00,
2013-03-10 18:08:00,40.9,38.2,29.67,SW,235,5.0,8.1,90,0.01,,,1.04,WUHU216HW,2013-03-10 23:08:00,
2013-03-10 18:13:00,40.7,38.0,29.68,SW,232,5.9,8.1,90,0.01,,,1.04,WUHU216HW,2013-03-10 23:13:00,
2013-03-10 18:18:00,40.7,38.0,29.68,WSW,248,3.6,7.6,90,0.01,,,1.04,WUHU216HW,2013-03-10 23:18:00,
2013-03-10 18:23:00,40.5,37.8,29.68,WNW,293,6.7,6.7,90,0.00,,,1.04,WUHU216HW,2013-03-10 23:23:00,
2013-03-10 18:28:00,40.5,37.8,29.68,WSW,248,4.7,6.7,90,0.00,,,1.04,WUHU216HW,2013-03-10 23:28:00,
2013-03-10 18:33:00,40.3,37.4,29.68,West,262,3.7,6.0,89,0.00,,,1.04,WUHU216HW,2013-03-10 23:33:00,
2013-03-10 18:38:00,40.1,37.4,29.68,North,356,2.1,6.0,90,0.00,,,1.04,WUHU216HW,2013-03-10 23:38:00,
2013-03-10 18:43:00,40.0,37.3,29.68,WNW,288,4.9,5.8,90,0.00,,,1.04,WUHU216HW,2013-03-10 23:43:00,
2013-03-10 18:48:00,39.6,36.9,29.69,WNW,293,5.1,5.8,90,0.00,,,1.04,WUHU216HW,2013-03-10 23:48:00,
2013-03-10 18:53:00,39.2,36.5,29.69,WSW,248,5.1,5.1,90,0.00,,,1.04,WUHU216HW,2013-03-10 23:53:00,
2013-03-10 18:58:00,38.9,36.5,29.69,NNW,338,6.3,6.3,91,0.00,,,1.04,WUHU216HW,2013-03-10 23:58:00,
2013-03-10 19:03:00,38.3,35.6,29.70,WNW,287,4.5,6.5,90,0.00,,,1.04,WUHU216HW,2013-03-11 00:03:00,
2013-03-10 19:08:00,38.0,35.6,29.70,WNW,293,4.6,6.5,91,0.00,,,1.04,WUHU216HW,2013-03-11 00:08:00,
2013-03-10 19:13:00,37.8,35.1,29.70,WNW,293,2.7,5.4,90,0.00,,,1.04,WUHU216HW,2013-03-11 00:13:00,
2013-03-10 19:18:00,37.6,35.2,29.71,NW,320,0.8,3.8,91,0.00,,,1.04,WUHU216HW,2013-03-11 00:18:00,
2013-03-10 19:23:00,37.4,35.0,29.71,West,279,2.2,2.7,91,0.00,,,1.04,WUHU216HW,2013-03-11 00:23:00,
2013-03-10 19:28:00,37.1,34.1,29.71,WSW,248,4.3,4.7,89,0.00,,,1.04,WUHU216HW,2013-03-11 00:28:00,
2013-03-10 19:33:00,37.1,34.1,29.72,West,270,5.4,5.4,89,0.00,,,1.04,WUHU216HW,2013-03-11 00:33:00,
2013-03-10 19:38:00,37.1,34.1,29.71,WNW,288,3.2,5.8,89,0.00,,,1.04,WUHU216HW,2013-03-11 00:38:00,
2013-03-10 19:43:00,36.7,33.8,29.72,SSE,159,3.4,8.1,89,0.00,,,1.04,WUHU216HW,2013-03-11 00:43:00,
2013-03-10 19:48:00,36.7,34.0,29.72,WSW,248,4.6,8.1,90,0.00,,,1.04,WUHU216HW,2013-03-11 00:48:00,
2013-03-10 19:53:00,36.5,33.8,29.73,WNW,293,1.9,5.4,90,0.00,,,1.04,WUHU216HW,2013-03-11 00:53:00,
2013-03-10 19:58:00,36.4,33.7,29.73,WSW,248,3.1,5.4,90,0.00,,,1.04,WUHU216HW,2013-03-11 00:58:00,
2013-03-10 20:03:00,36.2,33.5,29.73,West,270,3.9,5.4,90,0.00,,,1.04,WUHU216HW,2013-03-11 01:03:00,
2013-03-10 20:08:00,35.8,32.9,29.73,West,269,3.9,8.1,89,0.00,,,1.04,WUHU216HW,2013-03-11 01:08:00,
2013-03-10 20:13:00,35.6,32.7,29.73,NW,315,1.8,8.1,89,0.00,,,1.04,WUHU216HW,2013-03-11 01:13:00,
2013-03-10 20:18:00,35.6,32.7,29.74,West,270,4.7,5.8,89,0.00,,,1.04,WUHU216HW,2013-03-11 01:18:00,
2013-03-10 20:23:00,35.5,32.5,29.74,WNW,288,2.5,5.8,89,0.00,,,1.04,WUHU216HW,2013-03-11 01:23:00,
2013-03-10 20:28:00,35.3,32.3,29.74,NW,315,6.3,6.3,89,0.00,,,1.04,WUHU216HW,2013-03-11 01:28:00,
2013-03-10 20:33:00,35.1,32.4,29.74,WSW,248,6.0,6.7,90,0.00,,,1.04,WUHU216HW,2013-03-11 01:33:00,
2013-03-10 20:38:00,34.9,32.2,29.74,WNW,293,5.6,6.5,90,0.00,,,1.04,WUHU216HW,2013-03-11 01:38:00,
2013-03-10 20:43:00,34.7,32.0,29.74,WSW,239,4.5,6.9,90,0.00,,,1.04,WUHU216HW,2013-03-11 01:43:00,
2013-03-10 20:48:00,34.6,31.9,29.74,WNW,293,7.2,7.2,90,0.00,,,1.04,WUHU216HW,2013-03-11 01:48:00,
2013-03-10 20:53:00,34.2,31.5,29.75,NW,315,4.0,7.2,90,0.00,,,1.04,WUHU216HW,2013-03-11 01:53:00,
2013-03-10 20:58:00,34.2,31.5,29.75,SSW,203,2.0,6.3,90,0.00,,,1.04,WUHU216HW,2013-03-11 01:58:00,
2013-03-10 21:03:00,34.0,31.3,29.75,WNW,303,3.6,6.3,90,0.00,,,1.04,WUHU216HW,2013-03-11 02:03:00,
2013-03-10 21:08:00,34.0,31.6,29.75,West,268,2.0,4.0,91,0.00,,,1.04,WUHU216HW,2013-03-11 02:08:00,
2013-03-10 21:13:00,33.8,31.4,29.75,NW,315,2.5,3.8,91,0.00,,,1.04,WUHU216HW,2013-03-11 02:13:00,
2013-03-10 21:18:00,33.7,31.2,29.76,WNW,289,3.2,6.7,91,0.00,,,1.04,WUHU216HW,2013-03-11 02:18:00,
2013-03-10 21:23:00,33.5,30.8,29.76,WNW,293,3.4,6.7,90,0.00,,,1.04,WUHU216HW,2013-03-11 02:23:00,
2013-03-10 21:28:00,33.5,30.8,29.76,WNW,290,5.9,6.5,90,0.00,,,1.04,WUHU216HW,2013-03-11 02:28:00,
2013-03-10 21:33:00,33.3,31.0,29.77,West,270,1.6,6.5,91,0.00,,,1.04,WUHU216HW,2013-03-11 02:33:00,
2013-03-10 21:38:00,33.3,31.0,29.77,WNW,293,4.7,7.2,91,0.00,,,1.04,WUHU216HW,2013-03-11 02:38:00,
2013-03-10 21:43:00,33.1,30.8,29.77,WNW,293,3.6,7.2,91,0.00,,,1.04,WUHU216HW,2013-03-11 02:43:00,
2013-03-10 21:48:00,32.8,30.2,29.77,WSW,248,2.2,5.4,90,0.00,,,1.04,WUHU216HW,2013-03-11 02:48:00,
2013-03-10 21:53:00,32.8,30.4,29.77,West,270,3.4,4.3,91,0.00,,,1.04,WUHU216HW,2013-03-11 02:53:00,
2013-03-10 21:58:00,32.6,30.5,29.77,North,0,2.9,3.8,92,0.00,,,1.04,WUHU216HW,2013-03-11 02:58:00,
2013-03-10 22:03:00,32.6,30.5,29.77,NNW,329,3.6,4.9,92,0.00,,,1.04,WUHU216HW,2013-03-11 03:03:00,
2013-03-10 22:08:00,32.6,30.5,29.78,NW,322,2.6,4.9,92,0.00,,,1.04,WUHU216HW,2013-03-11 03:08:00,
2013-03-10 22:13:00,32.4,30.3,29.78,WSW,255,2.6,3.8,92,0.00,,,1.04,WUHU216HW,2013-03-11 03:13:00,
2013-03-10 22:18:00,32.2,30.2,29.78,NW,315,2.5,5.4,92,0.00,,,1.04,WUHU216HW,2013-03-11 03:18:00,
2013-03-10 22:23:00,32.0,30.1,29.78,WNW,286,1.3,5.4,92,0.00,,,1.04,WUHU216HW,2013-03-11 03:23:00,
2013-03-10 22:28:00,32.0,30.1,29.77,NNW,338,2.7,2.7,92,0.00,,,1.04,WUHU216HW,2013-03-11 03:28:00,
2013-03-10 22:33:00,32.0,29.8,29.78,WNW,293,3.1,5.1,91,0.00,,,1.04,WUHU216HW,2013-03-11 03:33:00,
2013-03-10 22:38:00,32.0,29.8,29.78,WNW,293,1.6,5.1,91,0.00,,,1.04,WUHU216HW,2013-03-11 03:38:00,
2013-03-10 22:43:00,32.0,29.8,29.78,WNW,293,0.4,3.4,91,0.00,,,1.04,WUHU216HW,2013-03-11 03:43:00,
2013-03-10 22:48:00,32.0,29.8,29.78,WNW,293,1.3,3.4,91,0.00,,,1.04,WUHU216HW,2013-03-11 03:48:00,
2013-03-10 22:53:00,32.0,29.8,29.78,WNW,293,1.5,5.1,91,0.00,,,1.04,WUHU216HW,2013-03-11 03:53:00,
2013-03-10 22:58:00,32.0,30.1,29.78,WNW,293,0.9,5.1,92,0.00,,,1.04,WUHU216HW,2013-03-11 03:58:00,
2013-03-10 23:00:00,32.0,30.2,29.78,WNW,293,1.1,5.1,93,0.00,,,1.04,WUHU216HW,2013-03-11 04:00:00,
2013-03-10 23:05:00,32.0,30.1,29.78,WNW,293,5.6,5.6,92,0.00,,,1.04,WUHU216HW,2013-03-11 04:05:00,
2013-03-10 23:10:00,32.0,30.1,29.78,WNW,293,3.4,5.6,92,0.00,,,1.04,WUHU216HW,2013-03-11 04:10:00,
2013-03-10 23:15:00,32.0,29.8,29.78,WNW,293,2.6,4.3,91,0.00,,,1.04,WUHU216HW,2013-03-11 04:15:00,
2013-03-10 23:20:00,31.9,29.6,29.78,WNW,293,6.2,6.9,91,0.00,,,1.04,WUHU216HW,2013-03-11 04:20:00,
2013-03-10 23:25:00,31.7,29.4,29.78,WNW,293,4.9,7.4,91,0.00,,,1.04,WUHU216HW,2013-03-11 04:25:00,
2013-03-10 23:30:00,31.7,29.4,29.78,WNW,293,2.7,7.4,91,0.00,,,1.04,WUHU216HW,2013-03-11 04:30:00,
2013-03-10 23:35:00,31.7,29.4,29.78,WNW,293,2.0,4.7,91,0.00,,,1.04,WUHU216HW,2013-03-11 04:35:00,
2013-03-10 23:40:00,31.7,29.4,29.78,WNW,293,3.4,3.4,91,0.00,,,1.04,WUHU216HW,2013-03-11 04:40:00,
2013-03-10 23:45:00,31.7,29.4,29.78,WNW,293,2.0,7.6,91,0.00,,,1.04,WUHU216HW,2013-03-11 04:45:00,
2013-03-10 23:50:00,31.7,29.4,29.78,WNW,293,2.7,7.6,91,0.00,,,1.04,WUHU216HW,2013-03-11 04:50:00,
2013-03-10 23:55:00,31.3,28.5,29.78,WNW,293,4.9,6.0,89,0.00,,,1.04,WUHU216HW,2013-03-11 04:55:00,